Startpagina
METAR-TAF:

METAR-TAF

Vliegvelden :

Port Moresby, Papoea-Nieuw-Guinea

Luchthaven Port Moresby

breedte: 09-26S, lengte: 147-13E, hoogte: 38 m

Actueel weer

Dit bericht is 1 uur en het 47 minuten geleden gemaakt, om 01:00 UTC
Wind 12 kt uit het zuidzuidoosten
Temperatuur 30°C
Vochtigheid 55%
Druk 1010 hPa
Zicht 10 km of meer
Verspreide wolken op 1800 ft
Heiigheid

METAR: AYPY 250100Z 16012KT 9999 SCT018 30/20 Q1010 HZ

Tijdstip: 12:47 (02:47 UTC)

Verwachting

Dit bericht is 4 uur en het 40 minuten geleden gemaakt, om 22:07 UTC
Verwachting geldig van 25 om 00 UTC tot 25 om 24 UTC
Wind 10 kt uit het zuiden
Zicht 10 km of meer
Weinig wolken op 1800 ft
Verspreide wolken op 14000 ft
Van 25 om 0500 UTC
Wind 15 kt uit het zuiden
Zicht 10 km of meer
Weinig wolken op 2000 ft
Verspreide wolken op 4000 ft
Van 25 om 1000 UTC
Wind 12 kt uit het zuiden
Zicht 10 km of meer
Verspreide wolken op 3500 ft

TAF: AYPY 242207Z 2500/2524 17010KT 9999 FEW018 SCT140 FM250500 17015KT 9999 FEW020 SCT040 FM251000 17012KT 9999 SCT035

Waarnemingen en weersverwachtingen van meer dan 4000 vliegvelden (METAR en TAF).

De beschikbare stations zijn de gele en rode punten op de kaart.

Ga met uw muis naar het station om de naam te zien.

Klik dan om waarnemingen en weersverwachtingen te zien.

kaart wijzigen: klik op de groene knoppen met een zwart kruis om in te zoomen, op de groene knop met een streepje om uit te zoomen of op de groene pijlen voor aangrenzende kaarten.


METAR-TAF: